createdAt,value
2017-11-21T00:01:33.587Z,83.00
2017-11-21T00:04:03.420Z,82.30
2017-11-21T00:06:32.506Z,82.10
2017-11-21T00:09:01.592Z,82.30
2017-11-21T00:11:30.662Z,82.40
2017-11-21T00:13:58.993Z,82.50
2017-11-21T00:16:27.316Z,82.60
2017-11-21T00:18:55.688Z,83.10
2017-11-21T00:21:24.010Z,82.80
2017-11-21T00:23:52.337Z,83.30
2017-11-21T00:26:20.686Z,83.80
2017-11-21T00:28:49.003Z,83.10
2017-11-21T00:31:17.324Z,83.00
2017-11-21T00:33:45.665Z,83.10
2017-11-21T00:36:13.983Z,83.30
2017-11-21T00:38:42.329Z,83.30
2017-11-21T00:41:10.007Z,83.80
2017-11-21T00:43:39.098Z,83.20
2017-11-21T00:46:08.193Z,82.80
2017-11-21T00:48:37.303Z,83.50
2017-11-21T00:51:05.621Z,83.50
2017-11-21T00:53:33.955Z,83.70
2017-11-21T00:56:02.275Z,83.60
2017-11-21T00:58:31.185Z,83.90
2017-11-21T01:00:59.671Z,83.80
2017-11-21T01:03:28.298Z,84.00
2017-11-21T01:05:56.622Z,84.80
2017-11-21T01:08:24.957Z,83.50
2017-11-21T01:10:53.272Z,83.80
2017-11-21T01:13:21.596Z,84.70
2017-11-21T01:15:49.943Z,84.50
2017-11-21T01:18:19.076Z,83.90
2017-11-21T01:20:47.391Z,83.90
2017-11-21T01:23:15.741Z,83.50
2017-11-21T01:25:44.262Z,83.70
2017-11-21T01:28:12.603Z,84.20
2017-11-21T01:30:40.939Z,84.00
2017-11-21T01:33:09.690Z,84.20
2017-11-21T01:35:38.011Z,84.20
2017-11-21T01:38:06.354Z,84.00
2017-11-21T01:40:34.673Z,84.60
2017-11-21T01:43:03.001Z,84.00
2017-11-21T01:45:31.345Z,83.80
2017-11-21T01:48:00.500Z,83.60
2017-11-21T01:50:30.220Z,84.00
2017-11-21T01:52:58.849Z,84.00
2017-11-21T01:55:27.174Z,84.10
2017-11-21T01:57:56.255Z,84.00
2017-11-21T02:00:25.384Z,84.10
2017-11-21T02:03:03.972Z,84.10
2017-11-21T02:05:33.075Z,84.20
2017-11-21T02:08:02.361Z,84.10
2017-11-21T02:10:31.676Z,84.70
2017-11-21T02:13:01.690Z,84.70
2017-11-21T02:15:30.791Z,84.20
2017-11-21T02:17:59.166Z,84.30
2017-11-21T02:20:26.824Z,84.10
2017-11-21T02:22:55.970Z,84.80
2017-11-21T02:25:23.957Z,84.80
2017-11-21T02:27:52.056Z,84.00
2017-11-21T02:30:20.478Z,84.10
2017-11-21T02:32:48.194Z,84.00
2017-11-21T02:35:16.847Z,84.60
2017-11-21T02:37:45.443Z,84.60
2017-11-21T02:40:13.845Z,84.40
2017-11-21T02:42:42.280Z,84.80
2017-11-21T02:45:10.275Z,84.70
2017-11-21T02:47:38.281Z,85.30
2017-11-21T02:50:06.298Z,84.80
2017-11-21T02:52:33.984Z,85.00
2017-11-21T02:55:03.068Z,84.40
2017-11-21T02:57:31.084Z,84.30
2017-11-21T02:59:58.742Z,84.50
2017-11-21T03:02:27.068Z,84.20
2017-11-21T03:04:55.394Z,84.30
2017-11-21T03:07:23.788Z,84.10
2017-11-21T03:09:52.190Z,84.90
2017-11-21T03:12:20.750Z,85.20
2017-11-21T03:14:48.747Z,84.40
2017-11-21T03:17:17.128Z,84.30
2017-11-21T03:19:45.507Z,84.40
2017-11-21T03:22:25.054Z,84.30
2017-11-21T03:25:05.409Z,86.30
2017-11-21T03:27:33.095Z,86.30
2017-11-21T03:30:01.514Z,84.90
2017-11-21T03:32:29.495Z,85.00
2017-11-21T03:34:57.872Z,84.40
2017-11-21T03:37:25.729Z,85.00
2017-11-21T03:39:54.108Z,85.20
2017-11-21T03:42:22.454Z,85.80
2017-11-21T03:44:50.113Z,85.00
2017-11-21T03:47:18.427Z,84.60
2017-11-21T03:49:46.819Z,85.40
2017-11-21T03:52:15.919Z,85.00
2017-11-21T03:54:44.171Z,84.60
2017-11-21T03:57:12.170Z,85.20
2017-11-21T03:59:41.320Z,85.50
2017-11-21T04:02:08.980Z,84.70
2017-11-21T04:04:37.187Z,84.70
2017-11-21T04:07:05.508Z,84.80
2017-11-21T04:09:33.588Z,85.80
2017-11-21T04:12:01.920Z,84.90
2017-11-21T04:14:30.258Z,85.40
2017-11-21T04:16:58.596Z,85.00
2017-11-21T04:19:27.768Z,86.20
2017-11-21T04:21:56.090Z,86.20
2017-11-21T04:24:24.440Z,85.10
2017-11-21T04:26:53.531Z,85.10
2017-11-21T04:29:22.677Z,84.90
2017-11-21T04:31:50.347Z,84.80
2017-11-21T04:34:18.467Z,84.90
2017-11-21T04:36:47.560Z,84.80
2017-11-21T04:39:16.710Z,85.20
2017-11-21T04:41:45.080Z,85.20
2017-11-21T04:44:13.487Z,85.90
2017-11-21T04:46:41.822Z,85.50
2017-11-21T04:49:09.939Z,84.80
2017-11-21T04:51:38.256Z,84.90
2017-11-21T04:54:06.389Z,85.50
2017-11-21T04:56:34.914Z,84.50
2017-11-21T04:59:02.935Z,84.30
2017-11-21T05:01:31.299Z,85.00
2017-11-21T05:03:59.654Z,86.30
2017-11-21T05:06:27.979Z,85.30
2017-11-21T05:08:56.804Z,85.20
2017-11-21T05:11:25.123Z,85.20
2017-11-21T05:13:53.469Z,85.00
2017-11-21T05:16:21.166Z,84.40
2017-11-21T05:18:49.753Z,85.30
2017-11-21T05:21:17.608Z,85.30
2017-11-21T05:23:45.306Z,84.80
2017-11-21T05:26:13.852Z,84.80
2017-11-21T05:28:42.304Z,84.80
2017-11-21T05:31:10.165Z,85.30
2017-11-21T05:33:38.606Z,84.60
2017-11-21T05:36:09.097Z,84.90
2017-11-21T05:38:37.488Z,85.00
2017-11-21T05:41:05.816Z,85.20
2017-11-21T05:43:34.242Z,85.80
2017-11-21T05:46:02.383Z,85.80
2017-11-21T05:48:30.431Z,85.40
2017-11-21T05:50:58.776Z,86.50
2017-11-21T05:53:27.892Z,84.90
2017-11-21T05:55:56.225Z,84.90
2017-11-21T05:58:24.783Z,85.20
2017-11-21T06:00:52.771Z,85.10
2017-11-21T06:03:21.115Z,85.50
2017-11-21T06:05:49.494Z,85.30
2017-11-21T06:08:18.145Z,84.90
2017-11-21T06:10:46.651Z,85.10
2017-11-21T06:13:16.023Z,84.90
2017-11-21T06:15:45.108Z,85.50
2017-11-21T06:18:14.431Z,85.50
2017-11-21T06:20:43.114Z,85.50
2017-11-21T06:23:12.239Z,85.90
2017-11-21T06:25:40.559Z,85.90
2017-11-21T06:28:08.927Z,85.50
2017-11-21T06:30:37.253Z,85.00
2017-11-21T06:33:05.700Z,85.30
2017-11-21T06:35:34.892Z,85.60
2017-11-21T06:38:03.231Z,85.50
2017-11-21T06:40:31.546Z,85.30
2017-11-21T06:42:59.895Z,85.10
2017-11-21T06:45:27.887Z,85.00
2017-11-21T06:47:57.786Z,85.30
2017-11-21T06:50:26.106Z,85.10
2017-11-21T06:52:54.547Z,84.90
2017-11-21T06:55:22.907Z,86.20
2017-11-21T06:57:51.122Z,85.70
2017-11-21T07:00:20.222Z,85.80
2017-11-21T07:02:49.328Z,85.20
2017-11-21T07:05:17.855Z,85.20
2017-11-21T07:07:46.176Z,85.10
2017-11-21T07:10:16.361Z,85.60
2017-11-21T07:12:45.619Z,85.60
2017-11-21T07:15:13.943Z,85.40
2017-11-21T07:17:42.282Z,85.10
2017-11-21T07:20:10.599Z,85.30
2017-11-21T07:22:40.196Z,85.00
2017-11-21T07:25:08.716Z,85.10
2017-11-21T07:27:37.800Z,87.20
2017-11-21T07:30:06.910Z,85.90
2017-11-21T07:32:36.240Z,85.90
2017-11-21T07:35:04.560Z,86.20
2017-11-21T07:37:32.916Z,85.50
2017-11-21T07:40:01.434Z,85.80
2017-11-21T07:42:30.522Z,85.50
2017-11-21T07:44:59.652Z,85.60
2017-11-21T07:47:27.975Z,85.60
2017-11-21T07:49:56.293Z,85.00
2017-11-21T07:52:24.642Z,85.60
2017-11-21T07:54:53.730Z,85.40
2017-11-21T07:57:22.068Z,85.40
2017-11-21T07:59:50.399Z,85.50
2017-11-21T08:02:20.458Z,86.00
2017-11-21T08:04:48.783Z,86.00
2017-11-21T08:07:17.990Z,85.80
2017-11-21T08:09:46.420Z,86.60
2017-11-21T08:12:15.388Z,86.60
2017-11-21T08:14:44.421Z,86.40
2017-11-21T08:17:12.962Z,86.60
2017-11-21T08:19:41.275Z,86.20
2017-11-21T08:22:10.636Z,86.30
2017-11-21T08:24:38.958Z,86.80
2017-11-21T08:27:07.504Z,86.90
2017-11-21T08:29:36.024Z,86.40
2017-11-21T08:32:04.018Z,86.50
2017-11-21T08:34:33.324Z,86.30
2017-11-21T08:37:02.409Z,86.40
2017-11-21T08:39:31.497Z,86.40
2017-11-21T08:42:01.736Z,86.10
2017-11-21T08:44:30.059Z,86.10
2017-11-21T08:46:58.379Z,86.70
2017-11-21T08:49:27.479Z,87.10
2017-11-21T08:51:57.539Z,87.10
2017-11-21T08:54:25.863Z,87.10
2017-11-21T08:56:54.975Z,86.90
2017-11-21T08:59:23.291Z,86.90
2017-11-21T09:01:52.588Z,87.00
2017-11-21T09:04:20.959Z,87.10
2017-11-21T09:06:49.147Z,87.70
2017-11-21T09:09:17.465Z,87.90
2017-11-21T09:11:47.756Z,87.30
2017-11-21T09:14:16.075Z,87.30
2017-11-21T09:16:44.420Z,87.30
2017-11-21T09:19:13.777Z,86.90
2017-11-21T09:21:43.327Z,87.00
2017-11-21T09:24:11.830Z,87.10
2017-11-21T09:26:40.949Z,87.40
2017-11-21T09:29:09.267Z,87.20
2017-11-21T09:31:37.590Z,87.20
2017-11-21T09:34:05.931Z,87.80
2017-11-21T09:36:34.251Z,87.80
2017-11-21T09:39:02.571Z,88.40
2017-11-21T09:41:30.912Z,87.40
2017-11-21T09:43:59.228Z,88.80
2017-11-21T09:46:27.556Z,87.90
2017-11-21T09:48:55.887Z,87.50
2017-11-21T09:51:24.215Z,87.70
2017-11-21T09:53:52.532Z,87.40
2017-11-21T09:56:20.875Z,87.20
2017-11-21T09:58:49.198Z,89.00
2017-11-21T10:01:17.548Z,87.80
2017-11-21T10:03:46.660Z,87.50
2017-11-21T10:06:15.183Z,87.50
2017-11-21T10:08:43.714Z,87.20
2017-11-21T10:11:12.143Z,87.70
2017-11-21T10:13:40.463Z,87.10
2017-11-21T10:16:08.455Z,87.40
2017-11-21T10:18:36.788Z,87.20
2017-11-21T10:21:04.808Z,87.70
2017-11-21T10:23:33.128Z,87.60
2017-11-21T10:26:01.464Z,87.30
2017-11-21T10:28:30.558Z,88.50
2017-11-21T10:30:59.103Z,88.50
2017-11-21T10:33:27.419Z,87.80
2017-11-21T10:35:56.508Z,87.80
2017-11-21T10:38:24.519Z,87.80
2017-11-21T10:40:53.755Z,87.50
2017-11-21T10:43:22.071Z,88.30
2017-11-21T10:45:50.920Z,87.70
2017-11-21T10:48:19.442Z,88.20
2017-11-21T10:50:47.767Z,88.50
2017-11-21T10:53:16.096Z,87.80
2017-11-21T10:55:44.416Z,88.00
2017-11-21T10:58:12.072Z,88.20
2017-11-21T11:00:40.071Z,88.20
2017-11-21T11:03:08.389Z,87.70
2017-11-21T11:05:35.859Z,87.70
2017-11-21T11:08:03.355Z,87.90
2017-11-21T11:13:02.043Z,88.00
2017-11-21T11:15:29.732Z,87.90
2017-11-21T11:17:57.687Z,87.80
2017-11-21T11:20:25.349Z,87.90
2017-11-21T11:22:53.022Z,87.60
2017-11-21T11:25:21.448Z,89.80
2017-11-21T11:27:49.122Z,89.10
2017-11-21T11:30:16.998Z,87.90
2017-11-21T11:32:45.721Z,88.10
2017-11-21T11:35:15.434Z,87.50
2017-11-21T11:37:44.463Z,87.70
2017-11-21T11:40:12.319Z,87.70
2017-11-21T11:42:39.983Z,87.70
2017-11-21T11:45:07.761Z,88.70
2017-11-21T11:47:35.424Z,87.90
2017-11-21T11:50:03.075Z,87.70
2017-11-21T11:52:30.767Z,88.10
2017-11-21T11:54:58.758Z,87.20
2017-11-21T11:57:27.195Z,87.70
2017-11-21T11:59:55.402Z,87.70
2017-11-21T12:02:23.083Z,87.70
2017-11-21T12:04:51.507Z,87.80
2017-11-21T12:07:19.203Z,87.80
2017-11-21T12:09:46.863Z,87.90
2017-11-21T12:12:15.371Z,88.90
2017-11-21T12:14:44.267Z,88.00
2017-11-21T12:17:11.932Z,87.90
2017-11-21T12:19:39.599Z,88.80
2017-11-21T12:22:08.369Z,88.80
2017-11-21T12:24:36.794Z,87.90
2017-11-21T12:27:04.450Z,87.90
2017-11-21T12:29:32.138Z,87.90
2017-11-21T12:32:00.761Z,88.50
2017-11-21T12:34:28.592Z,88.90
2017-11-21T12:36:57.698Z,88.40
2017-11-21T12:39:26.156Z,88.20
2017-11-21T12:41:53.811Z,88.20
2017-11-21T12:44:22.440Z,88.40
2017-11-21T12:46:50.107Z,88.50
2017-11-21T12:49:17.776Z,88.30
2017-11-21T12:51:46.441Z,88.30
2017-11-21T12:54:16.714Z,89.80
2017-11-21T12:56:45.119Z,89.90
2017-11-21T12:59:13.043Z,89.90
2017-11-21T13:01:41.761Z,90.50
2017-11-21T13:04:09.416Z,89.10
2017-11-21T13:06:37.100Z,89.00
2017-11-21T13:09:04.779Z,88.80
2017-11-21T13:11:32.444Z,88.90
2017-11-21T13:14:00.111Z,89.40
2017-11-21T13:16:27.849Z,89.30
2017-11-21T13:18:55.707Z,90.30
2017-11-21T13:21:23.910Z,89.40
2017-11-21T13:23:51.607Z,90.10
2017-11-21T13:26:19.281Z,88.40
2017-11-21T13:28:46.936Z,88.30
2017-11-21T13:31:15.455Z,88.90
2017-11-21T13:33:44.372Z,89.10
2017-11-21T13:36:12.044Z,89.10
2017-11-21T13:38:39.728Z,88.40
2017-11-21T13:41:07.404Z,89.10
2017-11-21T13:43:35.393Z,88.30
2017-11-21T13:46:03.088Z,88.90
2017-11-21T13:48:30.756Z,89.50
2017-11-21T13:50:58.750Z,88.60
2017-11-21T13:53:26.531Z,87.90
2017-11-21T13:55:54.390Z,88.20
2017-11-21T13:58:22.048Z,89.20
2017-11-21T14:00:49.732Z,88.10
2017-11-21T14:03:17.579Z,87.90
2017-11-21T14:05:45.248Z,88.10
2017-11-21T14:08:12.920Z,89.80
2017-11-21T14:10:40.776Z,89.90
2017-11-21T14:13:08.767Z,89.90
2017-11-21T14:15:36.443Z,88.80
2017-11-21T14:18:04.104Z,88.50
2017-11-21T14:20:31.769Z,89.00
2017-11-21T14:22:59.569Z,88.50
2017-11-21T14:25:28.191Z,88.10
2017-11-21T14:27:56.764Z,88.00
2017-11-21T14:30:24.976Z,88.50
2017-11-21T14:32:53.298Z,88.30
2017-11-21T14:35:21.285Z,88.10
2017-11-21T14:37:48.972Z,87.60
2017-11-21T14:40:16.832Z,87.70
2017-11-21T14:42:44.832Z,88.90
2017-11-21T14:45:13.601Z,88.60
2017-11-21T14:47:41.259Z,88.60
2017-11-21T14:50:09.243Z,88.60
2017-11-21T14:52:37.878Z,88.50
2017-11-21T14:55:05.544Z,88.40
2017-11-21T14:57:33.209Z,89.60
2017-11-21T15:00:01.408Z,90.00
2017-11-21T15:02:29.066Z,87.80
2017-11-21T15:04:57.055Z,90.10
2017-11-21T15:07:25.515Z,89.00
2017-11-21T15:09:53.170Z,89.00
2017-11-21T15:12:20.824Z,86.90
2017-11-21T15:14:48.954Z,89.20
2017-11-21T15:17:16.421Z,89.30
2017-11-21T15:19:44.074Z,89.90
2017-11-21T15:22:12.416Z,89.40
2017-11-21T15:24:40.839Z,89.00
2017-11-21T15:27:08.499Z,88.90
2017-11-21T15:29:36.275Z,87.80
2017-11-21T15:32:03.932Z,88.10
2017-11-21T15:34:32.260Z,87.90
2017-11-21T15:37:01.048Z,88.60
2017-11-21T15:39:30.139Z,88.20
2017-11-21T15:41:59.170Z,87.90
2017-11-21T15:44:27.512Z,87.90
2017-11-21T15:46:56.289Z,88.10
2017-11-21T15:49:24.612Z,88.00
2017-11-21T15:51:52.964Z,89.10
2017-11-21T15:54:22.052Z,88.00
2017-11-21T15:56:51.720Z,87.70
2017-11-21T15:59:19.767Z,87.70
2017-11-21T16:01:47.775Z,87.40
2017-11-21T16:04:16.118Z,86.40
2017-11-21T16:06:44.661Z,85.70
2017-11-21T16:09:13.755Z,85.70
2017-11-21T16:11:42.860Z,85.60
2017-11-21T16:14:11.211Z,85.60
2017-11-21T16:16:39.982Z,85.30
2017-11-21T16:19:08.520Z,85.30
2017-11-21T16:21:37.051Z,85.60
2017-11-21T16:24:05.388Z,85.80
2017-11-21T16:26:33.712Z,85.60
2017-11-21T16:29:02.494Z,86.00
2017-11-21T16:31:30.822Z,85.30
2017-11-21T16:33:58.833Z,85.30
2017-11-21T16:36:27.220Z,85.30
2017-11-21T16:38:55.544Z,85.00
2017-11-21T16:41:23.866Z,85.20
2017-11-21T16:43:52.279Z,84.80
2017-11-21T16:46:20.607Z,84.60
2017-11-21T16:48:48.936Z,84.30
2017-11-21T16:51:17.303Z,84.50
2017-11-21T16:53:45.359Z,84.40
2017-11-21T16:56:14.451Z,84.90
2017-11-21T16:58:43.662Z,85.00
2017-11-21T17:01:11.328Z,84.80
2017-11-21T17:03:39.706Z,84.50
2017-11-21T17:06:07.729Z,84.60
2017-11-21T17:08:36.090Z,84.50
2017-11-21T17:11:04.410Z,84.80
2017-11-21T17:13:33.515Z,85.40
2017-11-21T17:16:02.276Z,85.00
2017-11-21T17:18:30.603Z,85.00
2017-11-21T17:20:59.752Z,84.60
2017-11-21T17:23:28.066Z,84.40
2017-11-21T17:25:55.724Z,84.40
2017-11-21T17:28:24.871Z,84.40
2017-11-21T17:30:53.206Z,84.40
2017-11-21T17:33:21.530Z,84.40
2017-11-21T17:35:50.119Z,85.30
2017-11-21T17:38:18.756Z,85.10
2017-11-21T17:40:46.741Z,84.80
2017-11-21T17:43:14.746Z,84.60
2017-11-21T17:45:42.732Z,84.40
2017-11-21T17:48:11.815Z,84.20
2017-11-21T17:50:40.583Z,84.20
2017-11-21T17:53:08.930Z,84.20
2017-11-21T17:55:37.251Z,84.30
2017-11-21T17:58:05.262Z,84.00
2017-11-21T18:00:33.447Z,83.80
2017-11-21T18:03:01.784Z,84.40
2017-11-21T18:05:30.896Z,83.90
2017-11-21T18:07:59.223Z,83.80
2017-11-21T18:10:26.881Z,83.80
2017-11-21T18:12:55.298Z,84.00
2017-11-21T18:15:24.478Z,84.80
2017-11-21T18:17:53.246Z,84.90
2017-11-21T18:20:21.626Z,84.80
2017-11-21T18:22:50.431Z,84.40
2017-11-21T18:25:19.588Z,84.60
2017-11-21T18:27:47.948Z,84.60
2017-11-21T18:30:16.281Z,84.80
2017-11-21T18:33:05.412Z,84.40
2017-11-21T18:35:33.768Z,84.40
2017-11-21T18:38:02.104Z,84.30
2017-11-21T18:40:31.199Z,83.80
2017-11-21T18:43:00.316Z,84.40
2017-11-21T18:45:28.657Z,84.40
2017-11-21T18:47:56.991Z,84.40
2017-11-21T18:50:27.950Z,83.80
2017-11-21T18:52:56.282Z,84.30
2017-11-21T18:55:24.632Z,84.70
2017-11-21T18:57:53.182Z,84.40
2017-11-21T19:00:21.510Z,84.90
2017-11-21T19:02:49.871Z,84.10
2017-11-21T19:05:19.060Z,83.80
2017-11-21T19:07:47.387Z,83.70
2017-11-21T19:10:15.723Z,84.40
2017-11-21T19:12:44.900Z,84.10
2017-11-21T19:15:14.048Z,84.00
2017-11-21T19:17:43.355Z,83.90
2017-11-21T19:20:11.235Z,84.40
2017-11-21T19:22:39.563Z,83.90
2017-11-21T19:25:08.693Z,84.70
2017-11-21T19:27:37.034Z,84.70
2017-11-21T19:30:06.180Z,83.70
2017-11-21T19:32:34.513Z,83.80
2017-11-21T19:35:03.284Z,84.30
2017-11-21T19:37:32.382Z,84.00
2017-11-21T19:40:01.480Z,83.60
2017-11-21T19:42:31.625Z,83.90
2017-11-21T19:45:00.143Z,83.90
2017-11-21T19:47:28.542Z,84.00
2017-11-21T19:49:56.960Z,83.90
2017-11-21T19:52:25.329Z,83.70
2017-11-21T19:54:53.813Z,83.60
2017-11-21T19:57:22.147Z,83.90
2017-11-21T19:59:51.325Z,84.00
2017-11-21T20:02:19.721Z,83.90
2017-11-21T20:04:48.082Z,83.60
2017-11-21T20:07:17.235Z,83.80
2017-11-21T20:09:45.654Z,83.70
2017-11-21T20:12:13.990Z,83.80
2017-11-21T20:14:42.537Z,84.40
2017-11-21T20:17:11.770Z,84.00
2017-11-21T20:19:40.105Z,83.90
2017-11-21T20:22:09.191Z,83.50
2017-11-21T20:24:38.336Z,83.60
2017-11-21T20:27:06.828Z,83.60
2017-11-21T20:29:35.150Z,83.30
2017-11-21T20:32:04.070Z,83.30
2017-11-21T20:34:32.411Z,83.30
2017-11-21T20:37:01.171Z,83.80
2017-11-21T20:39:29.515Z,83.80
2017-11-21T20:41:57.834Z,83.40
2017-11-21T20:44:26.164Z,83.40
2017-11-21T20:46:54.222Z,83.40
2017-11-21T20:49:22.216Z,83.00
2017-11-21T20:51:50.539Z,83.00
2017-11-21T20:54:19.321Z,83.90
2017-11-21T20:56:47.651Z,83.90
2017-11-21T20:59:15.650Z,85.00
2017-11-21T21:01:43.740Z,84.80
2017-11-21T21:04:13.644Z,85.50
2017-11-21T21:06:42.511Z,85.00
2017-11-21T21:09:11.104Z,84.70
2017-11-21T21:11:39.455Z,84.60
2017-11-21T21:14:07.980Z,84.40
2017-11-21T21:16:36.536Z,84.90
2017-11-21T21:19:04.855Z,85.80
2017-11-21T21:21:33.943Z,83.80
2017-11-21T21:24:03.059Z,83.60
2017-11-21T21:26:31.052Z,83.50
2017-11-21T21:28:59.375Z,83.10
2017-11-21T21:31:28.169Z,82.90
2017-11-21T21:33:57.467Z,83.40
2017-11-21T21:36:26.551Z,83.40
2017-11-21T21:38:54.901Z,83.40
2017-11-21T21:41:23.234Z,84.00
2017-11-21T21:43:51.560Z,83.60
2017-11-21T21:46:20.679Z,84.10
2017-11-21T21:48:49.614Z,84.10
2017-11-21T21:51:17.608Z,84.30
2017-11-21T21:53:45.947Z,84.00
2017-11-21T21:56:13.956Z,84.00
2017-11-21T21:58:42.288Z,84.20
2017-11-21T22:01:10.692Z,84.60
2017-11-21T22:03:39.015Z,83.90
2017-11-21T22:06:07.051Z,83.70
2017-11-21T22:08:36.150Z,83.70
2017-11-21T22:11:04.147Z,83.70
2017-11-21T22:13:32.343Z,84.10
2017-11-21T22:16:01.745Z,83.20
2017-11-21T22:18:30.834Z,83.10
2017-11-21T22:20:59.924Z,82.90
2017-11-21T22:23:29.043Z,83.30
2017-11-21T22:25:57.423Z,83.30
2017-11-21T22:28:25.747Z,83.20
2017-11-21T22:30:54.171Z,83.30
2017-11-21T22:33:22.491Z,83.20
2017-11-21T22:35:50.895Z,83.30
2017-11-21T22:38:20.260Z,83.90
2017-11-21T22:40:49.231Z,83.20
2017-11-21T22:43:17.558Z,82.70
2017-11-21T22:45:45.924Z,82.60
2017-11-21T22:48:14.253Z,83.30
2017-11-21T22:50:42.245Z,82.90
2017-11-21T22:53:10.614Z,82.80
2017-11-21T22:55:38.932Z,83.00
2017-11-21T22:58:07.258Z,82.40
2017-11-21T23:00:35.629Z,82.80
2017-11-21T23:03:03.951Z,82.90
2017-11-21T23:05:32.283Z,82.90
2017-11-21T23:08:00.630Z,82.60
2017-11-21T23:10:29.383Z,82.10
2017-11-21T23:12:57.711Z,82.00
2017-11-21T23:15:26.046Z,82.70
2017-11-21T23:17:54.372Z,82.40
2017-11-21T23:20:22.691Z,82.50
2017-11-21T23:22:51.867Z,82.80
2017-11-21T23:25:20.780Z,82.80
2017-11-21T23:27:50.558Z,82.60
2017-11-21T23:30:18.963Z,82.50
2017-11-21T23:32:47.280Z,82.70
2017-11-21T23:35:15.774Z,82.70
2017-11-21T23:37:44.105Z,82.70
2017-11-21T23:40:12.634Z,82.20
2017-11-21T23:42:40.974Z,82.50
2017-11-21T23:45:09.297Z,82.20
2017-11-21T23:47:37.632Z,82.50
2017-11-21T23:50:06.224Z,82.90
2017-11-21T23:52:35.312Z,82.20
2017-11-21T23:55:03.635Z,82.20
2017-11-21T23:57:31.975Z,82.10
